KLM55T TBPB-TTPP
Flight info
| Callsign | KLM55T |
|---|---|
| Flight time | 0h 38m |
| Altitude | 26000 |
| Route | BGI UR515 TAB DCT NAPKO DCT LEXOR DCT TALUS |
| Aircraft | A20N/M-SDE2E3FGHIRWXY/LB1 |
Departure
| Time | 2026-05-06 00:54 |
|---|---|
| Airport | Grantley Adams International Airport (TBPB) |
Arrival
| Time | 2026-05-06 01:33 |
|---|---|
| Airport | Piarco International Airport (TTPP) |
| Time | Latitude | Longitude | Altitude | Speed | Heading |
|---|---|---|---|---|---|
| 2026-05-06 00:52 | 13.07107 | -59.50675 | 174 ft | 16 kts | 76° |
| 2026-05-06 00:53 | 13.07163 | -59.50428 | 174 ft | 77 kts | 78° |
| 2026-05-06 00:54 | 13.07268 | -59.50001 | 175 ft | 119 kts | 75° |
| 2026-05-06 00:54 | 13.07518 | -59.49026 | 376 ft | 157 kts | 77° |
| 2026-05-06 00:54 | 13.07789 | -59.47837 | 772 ft | 186 kts | 79° |
| 2026-05-06 00:55 | 13.07865 | -59.46454 | 1561 ft | 201 kts | 96° |
| 2026-05-06 00:55 | 13.07376 | -59.45057 | 2473 ft | 219 kts | 120° |
| 2026-05-06 00:55 | 13.06231 | -59.43945 | 3430 ft | 239 kts | 148° |
| 2026-05-06 00:55 | 13.04584 | -59.43430 | 4191 ft | 259 kts | 172° |
| 2026-05-06 00:56 | 13.02755 | -59.43642 | 4877 ft | 271 kts | 197° |
| 2026-05-06 00:56 | 13.01126 | -59.44675 | 5581 ft | 283 kts | 223° |
| 2026-05-06 00:56 | 12.99845 | -59.46242 | 6329 ft | 288 kts | 221° |
| 2026-05-06 00:56 | 12.98289 | -59.47532 | 7038 ft | 288 kts | 211° |
| 2026-05-06 00:57 | 12.96594 | -59.48669 | 7787 ft | 293 kts | 210° |
| 2026-05-06 00:57 | 12.94894 | -59.49797 | 8561 ft | 298 kts | 210° |
| 2026-05-06 00:57 | 12.93138 | -59.51015 | 9354 ft | 304 kts | 212° |
| 2026-05-06 00:57 | 12.91422 | -59.52256 | 10096 ft | 308 kts | 212° |
| 2026-05-06 00:58 | 12.89637 | -59.53573 | 10494 ft | 327 kts | 213° |
| 2026-05-06 00:58 | 12.87734 | -59.54990 | 10705 ft | 349 kts | 213° |
| 2026-05-06 00:58 | 12.85727 | -59.56492 | 11111 ft | 362 kts | 214° |
| 2026-05-06 00:58 | 12.83681 | -59.58027 | 11793 ft | 366 kts | 214° |
| 2026-05-06 00:59 | 12.81615 | -59.59576 | 12487 ft | 370 kts | 214° |
| 2026-05-06 00:59 | 12.79526 | -59.61141 | 13146 ft | 374 kts | 214° |
| 2026-05-06 00:59 | 12.77411 | -59.62723 | 13807 ft | 379 kts | 214° |
| 2026-05-06 00:59 | 12.75271 | -59.64322 | 14420 ft | 382 kts | 214° |
| 2026-05-06 01:00 | 12.73119 | -59.65930 | 15044 ft | 385 kts | 214° |
| 2026-05-06 01:00 | 12.70950 | -59.67549 | 15645 ft | 388 kts | 214° |
| 2026-05-06 01:00 | 12.68761 | -59.69184 | 16253 ft | 390 kts | 215° |
| 2026-05-06 01:00 | 12.66552 | -59.70833 | 16748 ft | 396 kts | 215° |
| 2026-05-06 01:01 | 12.64320 | -59.72498 | 17429 ft | 396 kts | 216° |
| 2026-05-06 01:01 | 12.62090 | -59.74163 | 18038 ft | 399 kts | 216° |
| 2026-05-06 01:01 | 12.59824 | -59.75853 | 18462 ft | 406 kts | 216° |
| 2026-05-06 01:01 | 12.57544 | -59.77554 | 19084 ft | 403 kts | 216° |
| 2026-05-06 01:02 | 12.55278 | -59.79244 | 19672 ft | 405 kts | 216° |
| 2026-05-06 01:02 | 12.52994 | -59.80947 | 20142 ft | 408 kts | 216° |
| 2026-05-06 01:02 | 12.50700 | -59.82657 | 20715 ft | 408 kts | 216° |
| 2026-05-06 01:02 | 12.48400 | -59.84371 | 21183 ft | 411 kts | 215° |
| 2026-05-06 01:03 | 12.46086 | -59.86095 | 21747 ft | 411 kts | 215° |
| 2026-05-06 01:03 | 12.43766 | -59.87823 | 22259 ft | 414 kts | 215° |
| 2026-05-06 01:03 | 12.41433 | -59.89561 | 22708 ft | 417 kts | 215° |
| 2026-05-06 01:03 | 12.39079 | -59.91314 | 23186 ft | 419 kts | 215° |
| 2026-05-06 01:04 | 12.36716 | -59.93074 | 23670 ft | 421 kts | 215° |
| 2026-05-06 01:04 | 12.34352 | -59.94833 | 24125 ft | 421 kts | 215° |
| 2026-05-06 01:04 | 12.31973 | -59.96604 | 24449 ft | 425 kts | 215° |
| 2026-05-06 01:04 | 12.29573 | -59.98390 | 24815 ft | 428 kts | 215° |
| 2026-05-06 01:05 | 12.27157 | -60.00187 | 25142 ft | 431 kts | 215° |
| 2026-05-06 01:05 | 12.24721 | -60.01997 | 25481 ft | 434 kts | 215° |
| 2026-05-06 01:05 | 12.22270 | -60.03819 | 25810 ft | 437 kts | 215° |
| 2026-05-06 01:05 | 12.19805 | -60.05652 | 25981 ft | 440 kts | 216° |
| 2026-05-06 01:06 | 12.17364 | -60.07466 | 26024 ft | 440 kts | 216° |
| 2026-05-06 01:06 | 12.14890 | -60.09304 | 26026 ft | 439 kts | 216° |
| 2026-05-06 01:06 | 12.12419 | -60.11139 | 26026 ft | 439 kts | 215° |
| 2026-05-06 01:06 | 12.09944 | -60.12977 | 26026 ft | 440 kts | 216° |
| 2026-05-06 01:07 | 12.07470 | -60.14812 | 26023 ft | 439 kts | 215° |
| 2026-05-06 01:07 | 12.05005 | -60.16641 | 26026 ft | 437 kts | 216° |
| 2026-05-06 01:07 | 12.02545 | -60.18466 | 26026 ft | 438 kts | 216° |
| 2026-05-06 01:07 | 12.00074 | -60.20300 | 26023 ft | 439 kts | 215° |
| 2026-05-06 01:08 | 11.97602 | -60.22133 | 26028 ft | 439 kts | 216° |
| 2026-05-06 01:08 | 11.95133 | -60.23964 | 26020 ft | 439 kts | 216° |
| 2026-05-06 01:08 | 11.92665 | -60.25794 | 26018 ft | 438 kts | 215° |
| 2026-05-06 01:08 | 11.90197 | -60.27622 | 26018 ft | 438 kts | 216° |
| 2026-05-06 01:09 | 11.87731 | -60.29450 | 26014 ft | 438 kts | 215° |
| 2026-05-06 01:09 | 11.85266 | -60.31275 | 26014 ft | 438 kts | 216° |
| 2026-05-06 01:09 | 11.82802 | -60.33100 | 26012 ft | 438 kts | 216° |
| 2026-05-06 01:09 | 11.80339 | -60.34924 | 26011 ft | 437 kts | 216° |
| 2026-05-06 01:10 | 11.77876 | -60.36747 | 26006 ft | 437 kts | 216° |
| 2026-05-06 01:10 | 11.75414 | -60.38569 | 26017 ft | 437 kts | 216° |
| 2026-05-06 01:10 | 11.72964 | -60.40381 | 25917 ft | 434 kts | 216° |
| 2026-05-06 01:10 | 11.70528 | -60.42184 | 25565 ft | 431 kts | 216° |
| 2026-05-06 01:11 | 11.68111 | -60.43972 | 25120 ft | 427 kts | 216° |
| 2026-05-06 01:11 | 11.65714 | -60.45744 | 24586 ft | 424 kts | 216° |
| 2026-05-06 01:11 | 11.63341 | -60.47499 | 24053 ft | 420 kts | 216° |
| 2026-05-06 01:11 | 11.60984 | -60.49240 | 23559 ft | 416 kts | 216° |
| 2026-05-06 01:12 | 11.58647 | -60.50968 | 22882 ft | 414 kts | 215° |
| 2026-05-06 01:12 | 11.56318 | -60.52690 | 22201 ft | 413 kts | 215° |
| 2026-05-06 01:12 | 11.53993 | -60.54408 | 21540 ft | 412 kts | 215° |
| 2026-05-06 01:12 | 11.51677 | -60.56118 | 20890 ft | 411 kts | 215° |
| 2026-05-06 01:13 | 11.49361 | -60.57829 | 20158 ft | 413 kts | 215° |
| 2026-05-06 01:13 | 11.47040 | -60.59543 | 19634 ft | 409 kts | 215° |
| 2026-05-06 01:13 | 11.44742 | -60.61239 | 19080 ft | 407 kts | 215° |
| 2026-05-06 01:13 | 11.42454 | -60.62928 | 18515 ft | 405 kts | 215° |
| 2026-05-06 01:14 | 11.37915 | -60.66278 | 17398 ft | 399 kts | 214° |
| 2026-05-06 01:14 | 11.35679 | -60.67927 | 16968 ft | 392 kts | 214° |
| 2026-05-06 01:14 | 11.33477 | -60.69551 | 16956 ft | 394 kts | 214° |
| 2026-05-06 01:15 | 11.31239 | -60.71199 | 16941 ft | 398 kts | 214° |
| 2026-05-06 01:15 | 11.29005 | -60.72846 | 16829 ft | 395 kts | 214° |
| 2026-05-06 01:15 | 11.26792 | -60.74477 | 16470 ft | 392 kts | 214° |
| 2026-05-06 01:15 | 11.24591 | -60.76099 | 16001 ft | 389 kts | 214° |
| 2026-05-06 01:16 | 11.22403 | -60.77712 | 15479 ft | 387 kts | 214° |
| 2026-05-06 01:16 | 11.20262 | -60.79289 | 14987 ft | 384 kts | 214° |
| 2026-05-06 01:16 | 11.18110 | -60.80875 | 14525 ft | 380 kts | 214° |
| 2026-05-06 01:16 | 11.16005 | -60.82479 | 14068 ft | 377 kts | 218° |
| 2026-05-06 01:17 | 11.14127 | -60.84336 | 13564 ft | 376 kts | 227° |
| 2026-05-06 01:17 | 11.12531 | -60.86437 | 13017 ft | 375 kts | 232° |
| 2026-05-06 01:17 | 11.10997 | -60.88613 | 12482 ft | 372 kts | 232° |
| 2026-05-06 01:17 | 11.09490 | -60.90734 | 11957 ft | 370 kts | 232° |
| 2026-05-06 01:18 | 11.07998 | -60.92827 | 11441 ft | 368 kts | 232° |
| 2026-05-06 01:18 | 11.06497 | -60.94932 | 10953 ft | 365 kts | 232° |
| 2026-05-06 01:18 | 11.05008 | -60.97018 | 10467 ft | 363 kts | 232° |
| 2026-05-06 01:18 | 11.03550 | -60.99065 | 10309 ft | 350 kts | 232° |
| 2026-05-06 01:19 | 11.02148 | -61.01032 | 10196 ft | 337 kts | 231° |
| 2026-05-06 01:19 | 11.00798 | -61.02926 | 10079 ft | 324 kts | 231° |
| 2026-05-06 01:19 | 10.99496 | -61.04751 | 9872 ft | 315 kts | 231° |
| 2026-05-06 01:19 | 10.98218 | -61.06540 | 9527 ft | 311 kts | 231° |
| 2026-05-06 01:20 | 10.96954 | -61.08307 | 9173 ft | 307 kts | 231° |
| 2026-05-06 01:20 | 10.95700 | -61.10062 | 8769 ft | 306 kts | 231° |
| 2026-05-06 01:20 | 10.94453 | -61.11807 | 8397 ft | 304 kts | 231° |
| 2026-05-06 01:20 | 10.93216 | -61.13538 | 8021 ft | 302 kts | 231° |
| 2026-05-06 01:21 | 10.91989 | -61.15256 | 7700 ft | 299 kts | 231° |
| 2026-05-06 01:21 | 10.90770 | -61.16961 | 7326 ft | 297 kts | 231° |
| 2026-05-06 01:21 | 10.89563 | -61.18648 | 6998 ft | 294 kts | 231° |
| 2026-05-06 01:21 | 10.88370 | -61.20317 | 6698 ft | 289 kts | 231° |
| 2026-05-06 01:22 | 10.87187 | -61.21972 | 6465 ft | 291 kts | 231° |
| 2026-05-06 01:22 | 10.85998 | -61.23632 | 6219 ft | 289 kts | 231° |
| 2026-05-06 01:22 | 10.84818 | -61.25283 | 5969 ft | 288 kts | 231° |
| 2026-05-06 01:22 | 10.83642 | -61.26928 | 5777 ft | 287 kts | 231° |
| 2026-05-06 01:23 | 10.82467 | -61.28570 | 5607 ft | 286 kts | 231° |
| 2026-05-06 01:23 | 10.81296 | -61.30207 | 5442 ft | 287 kts | 231° |
| 2026-05-06 01:23 | 10.80123 | -61.31846 | 5251 ft | 286 kts | 231° |
| 2026-05-06 01:23 | 10.78955 | -61.33480 | 5100 ft | 285 kts | 231° |
| 2026-05-06 01:24 | 10.77796 | -61.35100 | 4966 ft | 281 kts | 231° |
| 2026-05-06 01:24 | 10.76646 | -61.36707 | 4894 ft | 282 kts | 231° |
| 2026-05-06 01:24 | 10.75484 | -61.38328 | 4822 ft | 284 kts | 231° |
| 2026-05-06 01:24 | 10.74327 | -61.39942 | 4723 ft | 282 kts | 231° |
| 2026-05-06 01:25 | 10.73175 | -61.41553 | 4474 ft | 281 kts | 232° |
| 2026-05-06 01:25 | 10.72016 | -61.43172 | 4316 ft | 285 kts | 231° |
| 2026-05-06 01:25 | 10.70853 | -61.44786 | 4123 ft | 279 kts | 231° |
| 2026-05-06 01:25 | 10.69704 | -61.46389 | 4075 ft | 279 kts | 231° |
| 2026-05-06 01:26 | 10.68586 | -61.47953 | 4065 ft | 267 kts | 231° |
| 2026-05-06 01:26 | 10.67511 | -61.49453 | 4052 ft | 257 kts | 231° |
| 2026-05-06 01:26 | 10.66494 | -61.50880 | 4064 ft | 240 kts | 231° |
| 2026-05-06 01:26 | 10.65539 | -61.52218 | 4068 ft | 231 kts | 231° |
| 2026-05-06 01:27 | 10.64617 | -61.53507 | 4063 ft | 218 kts | 230° |
| 2026-05-06 01:27 | 10.63744 | -61.54723 | 4069 ft | 218 kts | 229° |
| 2026-05-06 01:27 | 10.62593 | -61.55652 | 4072 ft | 210 kts | 194° |
| 2026-05-06 01:27 | 10.61204 | -61.55743 | 4066 ft | 198 kts | 158° |
| 2026-05-06 01:28 | 10.60113 | -61.54997 | 4096 ft | 186 kts | 124° |
| 2026-05-06 01:28 | 10.59628 | -61.53822 | 4069 ft | 180 kts | 101° |
| 2026-05-06 01:28 | 10.59520 | -61.52550 | 4044 ft | 180 kts | 91° |
| 2026-05-06 01:28 | 10.59541 | -61.51289 | 3840 ft | 176 kts | 90° |
| 2026-05-06 01:29 | 10.59539 | -61.50097 | 3711 ft | 163 kts | 91° |
| 2026-05-06 01:29 | 10.59531 | -61.48954 | 3397 ft | 158 kts | 91° |
| 2026-05-06 01:29 | 10.59518 | -61.47869 | 3074 ft | 149 kts | 91° |
| 2026-05-06 01:29 | 10.59502 | -61.46833 | 2726 ft | 144 kts | 89° |
| 2026-05-06 01:30 | 10.59517 | -61.45831 | 2457 ft | 138 kts | 90° |
| 2026-05-06 01:30 | 10.59496 | -61.44880 | 2216 ft | 130 kts | 91° |
| 2026-05-06 01:30 | 10.59476 | -61.44000 | 1985 ft | 122 kts | 89° |
| 2026-05-06 01:30 | 10.59473 | -61.43145 | 1745 ft | 122 kts | 88° |
| 2026-05-06 01:31 | 10.59473 | -61.42575 | 1600 ft | 121 kts | 88° |
| 2026-05-06 01:31 | 10.59484 | -61.41432 | 1337 ft | 121 kts | 86° |
| 2026-05-06 01:31 | 10.59516 | -61.40573 | 1142 ft | 123 kts | 88° |
| 2026-05-06 01:31 | 10.59518 | -61.39990 | 1017 ft | 127 kts | 89° |
| 2026-05-06 01:32 | 10.59508 | -61.39088 | 833 ft | 128 kts | 89° |
| 2026-05-06 01:32 | 10.59521 | -61.38183 | 618 ft | 129 kts | 89° |
| 2026-05-06 01:32 | 10.59524 | -61.37281 | 437 ft | 127 kts | 90° |
| 2026-05-06 01:32 | 10.59533 | -61.36383 | 286 ft | 127 kts | 90° |
| 2026-05-06 01:33 | 10.59534 | -61.35479 | 112 ft | 128 kts | 90° |
| 2026-05-06 01:33 | 10.59533 | -61.34604 | 40 ft | 116 kts | 90° |
| 2026-05-06 01:33 | 10.59537 | -61.34079 | 42 ft | 31 kts | 90° |
| 2026-05-06 01:33 | 10.59537 | -61.34009 | 42 ft | 9 kts | 90° |
| 2026-05-06 01:34 | 10.59536 | -61.33848 | 45 ft | 38 kts | 88° |
| 2026-05-06 01:34 | 10.59578 | -61.33534 | 45 ft | 45 kts | 63° |
| 2026-05-06 01:34 | 10.59650 | -61.33454 | 49 ft | 0 kts | 32° |
| 2026-05-06 01:37 | 10.59659 | -61.33451 | 47 ft | 8 kts | 15° |
| 2026-05-06 01:37 | 10.59706 | -61.33493 | 49 ft | 12 kts | 287° |
| 2026-05-06 01:38 | 10.59713 | -61.33593 | 48 ft | 16 kts | 267° |
| 2026-05-06 01:38 | 10.59720 | -61.33714 | 45 ft | 17 kts | 304° |
| 2026-05-06 01:38 | 10.59835 | -61.33732 | 46 ft | 18 kts | 2° |
| 2026-05-06 01:38 | 10.59937 | -61.33797 | 46 ft | 16 kts | 308° |
| 2026-05-06 01:39 | 10.59951 | -61.33815 | 46 ft | 0 kts | 309° |